Trang, Thailand

9:18 PM ICT on October 01, 2014 (GMT +0700)
Krabi | Change Station
CLOSE
Current Station
Airport
Location: Krabi,
Elevation: 82 ft
Nearby Weather Stations

Elev 82 ft 8.10 °N, 98.99 °E | Updated 1 hour ago

Clear
Clear
77 °F
Feels Like 77 °F
N
0
Wind Variable Wind from North

Today
High -- | Low -- °F
--% Chance of Precip.
Yesterday
High -- | Low -- °F
Precip. -- in
6:09 AM 6:12 PM
Waxing Crescent, 48% visible
Pressure 29.86 in
Visibility 5.0 miles
Clouds
Dew Point 75 °F
Humidity 94%
Rainfall 0.00 in
Snow Depth Not available.
UV Not available.
Pollen Not available.
Air Quality Not available.
Flu Activity Not available.
METAR VTSG 011300Z 00000KT 8000 NSC 25/24 Q1011 A2986 INFO K RWY32

More Conditions Fewer Conditions

Pressure 29.86 in
Visibility 5.0 miles
Clouds
Dew Point 75 °F
Humidity 94%
Rainfall 0.00 in
Snow Depth Not available.
UV Not available.
Pollen Not available.
Air Quality Not available.
Flu Activity Not available.
METAR VTSG 011300Z 00000KT 8000 NSC 25/24 Q1011 A2986 INFO K RWY32

More Conditions Fewer Conditions

10-Day Weather Forecast

Almanac

Astronomy

Oct. 01, 2014 Rise Set
Actual Time 6:09 AM ICT 6:12 PM ICT
Civil Twilight 5:48 AM ICT 6:33 PM ICT
Nautical Twilight 5:24 AM ICT 6:57 PM ICT
Astronomical Twilight 5:00 AM ICT 7:22 PM ICT
Moon 11:53 AM ICT 11:59 PM ICT
Length of Visible Light 12h 44m
Length of Day
12h 03m
Tomorrow will be 0m 24s shorter.
Waxing Crescent, 48% of the Moon is Illuminated
Today
Waxing Crescent
Oct 1
First Quarter
Oct 8
Full
Oct 15
Last Quarter
Oct 23
New

Today's Extremes

Country Highs Country Lows

Community

WunderPhotos

Upload Photos

1,757,952 photos uploaded!

Nearby

Snow Depth

Not available.

Earthquake Activity

City Distance Mag. Time & Date
No recent earthquake activity has been reported nearby.
Minimum magnitude displayed is 2.5.

Coastal Water Temperatures

Place Temperature
No Stations Reporting

Nearby Weather Stations